Time;durP1;ratioP1;P1;durP2;ratioP2;P2;SDS_P1;SDS_P2;PMS_P1;PMS_P2;Temp;Humidity;BMP_temperature;BMP_pressure;BME280_temperature;BME280_humidity;BME280_pressure;Samples;Min_cycle;Max_cycle;Signal;HPM_P1;HPM_P2
2023/09/11 00:01:00;;;;;;;17.90;10.60;;;;;;;18.18;100.00;100412.06;5097707;28;20023;-85
2023/09/11 00:03:26;;;;;;;16.00;10.55;;;;;;;18.09;100.00;100407.44;5097550;28;20028;-85
2023/09/11 00:06:01;;;;;;;14.27;10.90;;;;;;;18.01;100.00;100402.81;5114630;28;20427;-84
2023/09/11 00:08:26;;;;;;;17.42;9.98;;;;;;;18.03;100.00;100414.63;5114250;28;20388;-84
2023/09/11 00:10:52;;;;;;;18.83;11.18;;;;;;;17.97;100.00;100411.81;5115667;28;20027;-86
2023/09/11 00:13:18;;;;;;;15.32;11.05;;;;;;;17.99;100.00;100409.13;5114253;28;20089;-85
2023/09/11 00:15:43;;;;;;;15.52;10.43;;;;;;;17.96;100.00;100413.13;5114445;28;20126;-85
2023/09/11 00:18:09;;;;;;;15.60;10.60;;;;;;;17.89;100.00;100405.03;5115415;28;20062;-85
2023/09/11 00:20:35;;;;;;;13.48;10.45;;;;;;;17.89;100.00;100413.72;5115682;28;20023;-86
2023/09/11 00:23:01;;;;;;;15.80;11.25;;;;;;;17.90;100.00;100405.81;5115357;27;20019;-85
2023/09/11 00:25:28;;;;;;;13.73;10.98;;;;;;;17.86;100.00;100411.91;5114238;28;20031;-85
2023/09/11 00:28:02;;;;;;;13.00;11.00;;;;;;;17.88;100.00;100415.06;5115342;28;20088;-85
2023/09/11 00:30:28;;;;;;;13.38;10.93;;;;;;;17.67;100.00;100385.03;5115433;28;20031;-88
2023/09/11 00:32:53;;;;;;;15.02;10.40;;;;;;;17.82;100.00;100408.53;5115460;28;20024;-85
2023/09/11 00:35:19;;;;;;;17.05;12.00;;;;;;;17.82;100.00;100408.53;5113885;28;20031;-85
2023/09/11 00:37:46;;;;;;;19.10;11.57;;;;;;;17.85;100.00;100410.34;5097032;28;20031;-85
2023/09/11 00:40:12;;;;;;;13.80;10.73;;;;;;;17.82;100.00;100411.44;5097377;28;20039;-86
2023/09/11 00:42:39;;;;;;;16.23;11.30;;;;;;;17.78;100.00;100416.75;5113994;28;20036;-87
2023/09/11 00:45:05;;;;;;;17.85;12.15;;;;;;;17.74;100.00;100402.56;5096896;28;20039;-86
2023/09/11 00:47:32;;;;;;;17.80;12.10;;;;;;;17.75;100.00;100403.34;5097099;28;20026;-87
2023/09/11 00:49:58;;;;;;;17.02;12.90;;;;;;;17.70;100.00;100407.06;5113834;28;20035;-84
2023/09/11 00:52:25;;;;;;;17.08;12.35;;;;;;;17.68;100.00;100415.53;5097305;28;20020;-86
2023/09/11 00:54:52;;;;;;;24.08;12.85;;;;;;;17.65;100.00;100410.81;5080390;28;20169;-87
2023/09/11 00:57:19;;;;;;;15.38;11.93;;;;;;;17.65;100.00;100408.69;5114060;28;20024;-87
2023/09/11 00:59:57;;;;;;;16.10;11.07;;;;;;;17.34;100.00;100366.66;5096338;28;20024;-84
2023/09/11 01:02:24;;;;;;;14.15;12.05;;;;;;;17.62;100.00;100414.78;5113930;28;20023;-87
2023/09/11 01:05:00;;;;;;;16.63;12.18;;;;;;;17.64;100.00;100404.25;5113896;28;20050;-86
2023/09/11 01:07:47;;;;;;;19.85;11.75;;;;;;;17.62;100.00;100406.91;5120869;28;20016;-86
2023/09/11 01:10:13;;;;;;;20.92;10.77;;;;;;;17.51;100.00;100404.09;5137130;28;20024;-87
2023/09/11 01:12:39;;;;;;;17.52;12.38;;;;;;;17.49;100.00;100398.06;5138680;28;20057;-82
2023/09/11 01:15:06;;;;;;;20.02;11.57;;;;;;;17.45;100.00;100394.69;5120080;28;20072;-84
2023/09/11 01:18:02;;;;;;;16.50;11.23;;;;;;;17.48;100.00;100399.41;5113462;28;20031;-86
2023/09/11 01:20:59;;;;;;;15.10;10.73;;;;;;;17.45;100.00;100397.59;5115153;28;20050;-87
2023/09/11 01:23:37;;;;;;;14.65;11.70;;;;;;;17.41;100.00;100399.97;5115233;28;20020;-87
2023/09/11 01:26:15;;;;;;;17.58;11.05;;;;;;;17.32;100.00;100398.22;5115245;28;20031;-80
2023/09/11 01:29:07;;;;;;;17.73;10.68;;;;;;;17.36;100.00;100401.59;5113414;28;20059;-86
2023/09/11 01:31:32;;;;;;;;;;;;;;;17.29;100.00;100396.38;5114683;28;20480;-85
2023/09/11 01:34:02;;;;;;;20.80;11.77;;;;;;;17.21;100.00;100400.41;5113227;28;20400;-85
2023/09/11 01:36:29;;;;;;;20.88;11.88;;;;;;;17.22;100.00;100401.97;5114457;28;20031;-83
2023/09/11 01:38:56;;;;;;;19.00;11.95;;;;;;;17.13;100.00;100405.19;5114095;28;20023;-84
2023/09/11 01:41:35;;;;;;;18.42;10.90;;;;;;;17.10;100.00;100403.38;5096312;28;20039;-83
2023/09/11 01:44:08;;;;;;;14.23;11.02;;;;;;;17.07;100.00;100402.34;5114360;28;20043;-85
2023/09/11 01:46:34;;;;;;;17.13;11.38;;;;;;;17.04;100.00;100396.88;5115571;28;20050;-85
2023/09/11 01:49:09;;;;;;;16.15;10.70;;;;;;;17.06;100.00;100399.97;5100185;28;20034;-85
2023/09/11 01:51:37;;;;;;;18.45;11.40;;;;;;;17.01;100.00;100397.91;5099818;28;20096;-84
2023/09/11 01:54:05;;;;;;;17.90;11.88;;;;;;;17.01;100.00;100403.69;5118636;28;20024;-84
2023/09/11 01:56:32;;;;;;;15.35;12.13;;;;;;;16.81;100.00;100376.00;5099878;28;20028;-82
2023/09/11 01:58:57;;;;;;;16.63;12.00;;;;;;;16.97;100.00;100399.00;5118249;28;20365;-84
2023/09/11 02:01:23;;;;;;;16.15;11.00;;;;;;;16.94;100.00;100400.06;5099613;28;20453;-83
2023/09/11 02:03:49;;;;;;;14.88;11.20;;;;;;;16.96;100.00;100403.22;5116528;28;20088;-84
2023/09/11 02:06:15;;;;;;;18.42;11.68;;;;;;;16.95;100.00;100406.63;5118002;27;20518;-84
2023/09/11 02:08:41;;;;;;;18.23;11.20;;;;;;;16.95;100.00;100407.41;5117746;28;20125;-84
2023/09/11 02:11:07;;;;;;;14.18;10.65;;;;;;;16.93;100.00;100394.84;5117576;28;20043;-82
2023/09/11 02:13:35;;;;;;;15.43;11.38;;;;;;;16.92;100.00;100405.59;5116835;28;20039;-83
2023/09/11 02:16:01;;;;;;;15.25;12.10;;;;;;;16.91;100.00;100401.13;5099716;28;20035;-86
2023/09/11 02:18:28;;;;;;;14.52;11.38;;;;;;;16.90;100.00;100402.44;5117921;28;20035;-84
2023/09/11 02:20:53;;;;;;;14.07;10.77;;;;;;;16.88;100.00;100402.22;5117737;28;20116;-84
2023/09/11 02:23:20;;;;;;;18.85;11.88;;;;;;;16.73;100.00;100377.91;5099414;28;20024;-84
2023/09/11 02:25:50;;;;;;;14.25;11.73;;;;;;;16.82;100.00;100392.81;5117454;28;20381;-85
2023/09/11 02:28:15;;;;;;;15.55;11.73;;;;;;;16.71;100.00;100369.00;5116231;28;20484;-85
2023/09/11 02:30:43;;;;;;;14.68;11.35;;;;;;;16.88;100.00;100401.44;5116134;28;20065;-83
2023/09/11 02:33:09;;;;;;;18.38;11.48;;;;;;;16.80;100.00;100395.44;5115997;28;20027;-84
2023/09/11 02:35:36;;;;;;;16.05;10.43;;;;;;;16.81;100.00;100397.00;5098853;28;20084;-86
2023/09/11 02:38:02;;;;;;;16.33;10.60;;;;;;;16.80;100.00;100398.31;5098938;28;20127;-84
2023/09/11 02:40:29;;;;;;;14.88;10.35;;;;;;;16.73;100.00;100395.22;5115893;28;20020;-85
2023/09/11 02:42:55;;;;;;;15.70;10.82;;;;;;;16.77;100.00;100398.59;5115669;28;20051;-85
2023/09/11 02:45:23;;;;;;;17.92;10.93;;;;;;;16.63;100.00;100374.56;5117425;28;20031;-85
2023/09/11 02:47:49;;;;;;;21.27;11.45;;;;;;;16.72;100.00;100397.31;5117484;28;20062;-84
2023/09/11 02:50:16;;;;;;;19.60;10.73;;;;;;;16.69;100.00;100394.72;5115364;28;20393;-84
2023/09/11 02:52:42;;;;;;;16.60;11.25;;;;;;;16.69;100.00;100386.06;5115567;28;20023;-85
2023/09/11 02:55:16;;;;;;;14.73;10.95;;;;;;;16.60;100.00;100378.50;5116955;27;20023;-85
2023/09/11 02:57:43;;;;;;;16.63;11.45;;;;;;;16.66;100.00;100395.78;5116552;28;20031;-85
2023/09/11 03:00:10;;;;;;;15.68;10.13;;;;;;;16.55;100.00;100385.88;5117170;28;20028;-85
2023/09/11 03:02:36;;;;;;;19.08;11.30;;;;;;;16.62;100.00;100393.19;5117061;28;20053;-84
2023/09/11 03:05:02;;;;;;;17.60;12.27;;;;;;;16.61;100.00;100396.59;5117031;28;20063;-84
2023/09/11 03:07:27;;;;;;;19.98;10.95;;;;;;;16.54;100.00;100392.19;5116783;28;20076;-84
2023/09/11 03:09:54;;;;;;;13.63;10.75;;;;;;;16.54;100.00;100384.31;5115614;28;20039;-85
2023/09/11 03:12:19;;;;;;;16.52;10.23;;;;;;;16.54;100.00;100392.97;5098892;28;20043;-84
2023/09/11 03:14:47;;;;;;;19.40;11.00;;;;;;;16.50;100.00;100388.78;5098673;28;20027;-83
2023/09/11 03:17:14;;;;;;;17.13;10.85;;;;;;;16.47;100.00;100390.63;5115405;28;20106;-83
2023/09/11 03:19:40;;;;;;;17.95;9.88;;;;;;;16.11;100.00;100332.06;5116639;28;20499;-84
2023/09/11 03:22:06;;;;;;;21.92;10.27;;;;;;;16.46;100.00;100380.38;5115870;28;20031;-83
2023/09/11 03:24:33;;;;;;;15.77;10.40;;;;;;;16.41;100.00;100381.19;5116543;28;20026;-83
2023/09/11 03:26:59;;;;;;;11.75;10.27;;;;;;;16.38;100.00;100381.50;5115149;28;20080;-84
2023/09/11 03:29:27;;;;;;;18.92;10.52;;;;;;;16.36;100.00;100376.25;5116540;28;20028;-84
2023/09/11 03:31:53;;;;;;;18.63;10.43;;;;;;;16.32;100.00;100384.41;5116183;28;20034;-84
2023/09/11 03:34:20;;;;;;;17.20;9.35;;;;;;;16.25;100.00;100375.53;5116015;28;20487;-84
2023/09/11 03:36:46;;;;;;;15.13;10.52;;;;;;;16.27;100.00;100372.88;5115004;28;20040;-85
2023/09/11 03:39:12;;;;;;;14.32;10.73;;;;;;;16.24;100.00;100371.84;5116272;28;20555;-82
2023/09/11 03:41:37;;;;;;;17.52;10.18;;;;;;;16.17;100.00;100375.28;5116301;28;20063;-84
2023/09/11 03:44:03;;;;;;;17.25;10.70;;;;;;;16.18;100.00;100379.75;5115677;28;20051;-83
2023/09/11 03:46:31;;;;;;;16.48;9.73;;;;;;;16.16;100.00;100376.59;5114976;28;20028;-84
2023/09/11 03:48:56;;;;;;;17.65;10.02;;;;;;;16.13;100.00;100378.44;5116036;28;20050;-83
2023/09/11 03:51:23;;;;;;;15.35;10.15;;;;;;;16.11;100.00;100371.63;5115631;28;20445;-84
2023/09/11 03:53:49;;;;;;;17.58;10.18;;;;;;;16.06;100.00;100379.00;5116064;28;20118;-83
2023/09/11 03:56:16;;;;;;;17.50;10.38;;;;;;;16.06;100.00;100379.00;5097579;28;20038;-84
2023/09/11 03:58:50;;;;;;;18.17;10.90;;;;;;;16.05;100.00;100380.31;5114472;28;20043;-84
2023/09/11 04:01:18;;;;;;;20.85;10.07;;;;;;;16.01;100.00;100373.25;5114930;28;20053;-83
2023/09/11 04:03:43;;;;;;;21.35;11.45;;;;;;;16.03;100.00;100374.28;5115052;28;20422;-86
2023/09/11 04:06:09;;;;;;;23.88;10.25;;;;;;;15.98;100.00;100360.69;5114553;28;20023;-86
2023/09/11 04:08:34;;;;;;;25.08;10.50;;;;;;;16.00;100.00;100372.47;5115437;28;20057;-86
2023/09/11 04:11:01;;;;;;;30.17;11.63;;;;;;;16.03;100.00;100374.28;5115211;28;20078;-83
2023/09/11 04:13:28;;;;;;;23.10;10.15;;;;;;;16.03;100.00;100382.94;5115208;28;20026;-83
2023/09/11 04:15:55;;;;;;;17.42;10.00;;;;;;;16.03;100.00;100374.28;5114279;28;20098;-83
2023/09/11 04:18:20;;;;;;;16.65;10.20;;;;;;;16.03;100.00;100374.28;5096900;28;20030;-82
2023/09/11 04:21:05;;;;;;;23.67;11.68;;;;;;;16.08;100.00;100366.94;5115328;28;20020;-82
2023/09/11 04:23:31;;;;;;;29.58;11.20;;;;;;;16.03;100.00;100365.66;5096574;28;20027;-85
2023/09/11 04:25:57;;;;;;;27.83;11.40;;;;;;;16.02;100.00;100358.31;5114932;28;20035;-84
2023/09/11 04:28:23;;;;;;;27.50;10.82;;;;;;;16.06;100.00;100367.47;5096747;28;20023;-85
2023/09/11 04:30:49;;;;;;;26.83;12.70;;;;;;;16.07;100.00;100369.03;5113594;28;20346;-84
2023/09/11 04:33:17;;;;;;;23.15;11.43;;;;;;;16.04;100.00;100367.22;5112808;28;20039;-82
2023/09/11 04:36:04;;;;;;;24.88;11.98;;;;;;;16.17;100.00;100371.63;5114444;28;20024;-80
2023/09/11 04:38:30;;;;;;;27.17;11.38;;;;;;;16.01;100.00;100345.19;5114037;28;20012;-82
2023/09/11 04:40:56;;;;;;;18.80;10.80;;;;;;;16.15;100.00;100362.72;5112509;28;20093;-81
2023/09/11 04:43:25;;;;;;;25.98;10.50;;;;;;;16.24;100.00;100360.31;5113128;28;20046;-81
2023/09/11 04:45:53;;;;;;;23.98;11.18;;;;;;;16.29;100.00;100365.28;5114697;28;20472;-81
2023/09/11 04:48:19;;;;;;;23.02;11.27;;;;;;;16.33;100.00;100365.00;5114783;28;20043;-81
2023/09/11 04:50:45;;;;;;;24.90;11.65;;;;;;;16.32;100.00;100361.31;5114992;28;20058;-82
2023/09/11 04:53:12;;;;;;;42.03;11.55;;;;;;;15.94;100.00;100307.50;5114358;28;20078;-84
2023/09/11 04:55:37;;;;;;;35.42;12.02;;;;;;;16.25;100.00;100338.81;5114023;28;20036;-82
2023/09/11 04:58:03;;;;;;;31.30;12.57;;;;;;;16.46;100.00;100362.28;5113283;28;20024;-82
2023/09/11 05:00:30;;;;;;;32.78;11.55;;;;;;;16.48;100.00;100357.56;5114720;28;20023;-81
2023/09/11 05:02:56;;;;;;;36.90;11.43;;;;;;;16.51;100.00;100353.59;5114509;28;20027;-82
2023/09/11 05:05:23;;;;;;;26.08;11.50;;;;;;;16.61;100.00;100361.97;5113405;28;20028;-84
2023/09/11 05:07:56;;;;;;;28.15;11.80;;;;;;;16.66;100.00;100361.94;5113997;28;20039;-79
2023/09/11 05:10:23;;;;;;;24.75;11.77;;;;;;;16.75;100.00;100355.84;5114345;28;20085;-79
2023/09/11 05:12:49;;;;;;;25.38;12.20;;;;;;;16.81;100.00;100356.59;5114210;28;20445;-77
2023/09/11 05:15:15;;;;;;;32.70;12.05;;;;;;;16.77;100.00;100344.56;5114197;28;20020;-76
2023/09/11 05:17:43;;;;;;;29.05;10.82;;;;;;;16.93;100.00;100363.88;5114272;28;20035;-79
2023/09/11 05:20:09;;;;;;;29.90;11.43;;;;;;;17.03;100.00;100354.88;5114815;28;20365;-78
2023/09/11 05:22:35;;;;;;;28.17;11.50;;;;;;;17.09;100.00;100353.53;5114381;28;20040;-77
2023/09/11 05:25:02;;;;;;;25.85;10.95;;;;;;;17.23;100.00;100349.44;5114338;28;20023;-80
2023/09/11 05:27:29;;;;;;;21.02;10.82;;;;;;;17.32;100.00;100354.09;5112738;28;20020;-80
2023/09/11 05:29:55;;;;;;;19.42;10.88;;;;;;;17.41;100.00;100348.75;5114191;28;20039;-79
2023/09/11 05:32:23;;;;;;;38.47;11.82;;;;;;;17.50;100.00;100353.41;5113885;28;20020;-78
2023/09/11 05:34:56;;;;;;;24.02;12.90;;;;;;;17.58;100.00;100363.06;5113898;28;20076;-83
2023/09/11 05:37:23;;;;;;;21.10;12.35;;;;;;;17.61;100.00;100347.53;5113673;28;20024;-81
2023/09/11 05:39:50;;;;;;;28.88;12.82;;;;;;;17.73;100.00;100357.63;5112657;28;20015;-75
2023/09/11 05:42:16;;;;;;;34.42;12.43;;;;;;;17.84;100.00;100348.84;5113566;28;20518;-76
2023/09/11 05:44:43;;;;;;;21.77;12.23;;;;;;;17.95;100.00;100359.50;5113530;28;20092;-76
2023/09/11 05:47:10;;;;;;;24.98;12.65;;;;;;;17.98;100.00;100348.97;5095684;28;20027;-79
2023/09/11 05:49:36;;;;;;;28.38;12.38;;;;;;;18.15;100.00;100353.22;5112643;28;20110;-78
2023/09/11 05:52:02;;;;;;;19.00;11.65;;;;;;;18.23;100.00;100339.69;5112776;28;20112;-76
2023/09/11 05:54:45;;;;;;;22.10;12.13;;;;;;;18.41;100.00;100349.75;5094456;28;20448;-78
2023/09/11 05:57:13;;;;;;;28.25;11.63;;;;;;;18.54;100.00;100351.94;5112839;28;20065;-75
2023/09/11 06:00:01;;;;;;;23.70;11.48;;;;;;;18.71;100.00;100345.91;5112348;28;20371;-77
2023/09/11 06:02:27;;;;;;;26.90;11.20;;;;;;;18.77;100.00;100346.63;5112313;28;20490;-76
2023/09/11 06:04:53;;;;;;;23.95;12.20;;;;;;;18.88;100.00;100341.41;5113792;28;20036;-76
2023/09/11 06:07:20;;;;;;;24.02;11.95;;;;;;;19.04;100.00;100339.59;5114006;28;20107;-77
2023/09/11 06:09:50;;;;;;;22.48;12.32;;;;;;;19.17;100.00;100347.56;5112487;28;20494;-75
2023/09/11 06:12:17;;;;;;;26.52;12.02;;;;;;;19.33;100.00;100340.69;5112189;28;20031;-76
2023/09/11 06:14:43;;;;;;;36.83;10.52;;;;;;;19.75;100.00;100351.25;5112628;28;20360;-77
2023/09/11 06:17:14;;;;;;;18.08;10.82;;;;;;;20.51;100.00;100340.72;5112879;28;20023;-78
2023/09/11 06:19:42;;;;;;;17.73;9.68;;;;;;;21.50;100.00;100325.13;5094707;28;20020;-76
2023/09/11 06:22:13;;;;;;;16.85;10.15;;;;;;;22.67;100.00;100324.63;5112405;28;20024;-76
2023/09/11 06:24:38;;;;;;;16.50;9.60;;;;;;;23.91;100.00;100295.75;5112443;28;20030;-75
2023/09/11 06:27:08;;;;;;;19.75;10.02;;;;;;;25.35;100.00;100306.72;5110877;28;20035;-77
2023/09/11 06:29:34;;;;;;;17.20;10.55;;;;;;;26.50;100.00;100292.47;5112044;28;20535;-77
2023/09/11 06:32:12;;;;;;;18.17;8.68;;;;;;;27.51;100.00;100280.19;5112178;28;20460;-78
2023/09/11 06:34:37;;;;;;;12.90;8.80;;;;;;;28.30;100.00;100283.38;5114850;28;20525;-77
2023/09/11 06:37:10;;;;;;;18.70;8.82;;;;;;;29.25;100.00;100272.81;5114717;28;20090;-77
2023/09/11 06:39:36;;;;;;;13.63;8.43;;;;;;;30.15;100.00;100283.63;5115656;28;20027;-77
2023/09/11 06:42:07;;;;;;;13.65;8.25;;;;;;;30.89;100.00;100278.25;5115154;27;20367;-77
2023/09/11 06:44:45;;;;;;;15.13;8.82;;;;;;;31.48;99.56;100279.09;5116334;28;20039;-77
2023/09/11 06:47:11;;;;;;;14.90;8.10;;;;;;;31.90;98.48;100272.88;5115723;28;20460;-76
2023/09/11 06:49:36;;;;;;;16.63;8.82;;;;;;;32.27;90.83;100275.88;5115874;28;20116;-77
2023/09/11 06:52:16;;;;;;;17.13;8.25;;;;;;;32.47;86.97;100282.22;5115997;28;20445;-77
2023/09/11 06:54:41;;;;;;;11.70;8.23;;;;;;;32.61;84.47;100274.19;5116090;28;20030;-76
2023/09/11 06:57:11;;;;;;;9.73;8.15;;;;;;;32.90;89.47;100273.63;5114837;28;20040;-77
2023/09/11 06:59:36;;;;;;;12.82;8.38;;;;;;;33.15;80.23;100278.75;5115943;28;20084;-76
2023/09/11 07:02:10;;;;;;;13.57;8.07;;;;;;;33.13;78.00;100279.41;5116981;27;20036;-77
2023/09/11 07:04:36;;;;;;;12.27;8.20;;;;;;;33.45;86.35;100280.47;5098395;28;20543;-77
2023/09/11 07:07:01;;;;;;;15.02;8.70;;;;;;;33.99;84.42;100279.69;5115217;28;20111;-76
2023/09/11 07:09:28;;;;;;;10.90;8.05;;;;;;;34.44;81.37;100285.75;5116872;28;20028;-77
2023/09/11 07:11:53;;;;;;;17.83;9.15;;;;;;;34.58;79.78;100280.53;5115212;28;20031;-76
2023/09/11 07:14:21;;;;;;;13.40;8.77;;;;;;;34.79;71.65;100282.34;5116848;28;20023;-78
2023/09/11 07:16:46;;;;;;;15.93;8.77;;;;;;;34.66;73.63;100280.97;5115420;28;20063;-77
2023/09/11 07:19:12;;;;;;;11.70;7.70;;;;;;;35.05;77.22;100288.81;5116164;28;20081;-78
2023/09/11 07:21:40;;;;;;;13.65;8.57;;;;;;;35.60;74.84;100284.03;5114901;28;20100;-75
2023/09/11 07:24:06;;;;;;;13.88;8.35;;;;;;;35.77;65.39;100279.59;5116395;28;20393;-76
2023/09/11 07:26:32;;;;;;;9.95;8.13;;;;;;;35.78;67.39;100281.16;5115171;28;20459;-77
2023/09/11 07:29:09;;;;;;;10.70;8.00;;;;;;;36.07;66.81;100273.50;5116523;28;20027;-78
2023/09/11 07:31:36;;;;;;;14.73;8.10;;;;;;;36.35;67.22;100275.50;5115068;28;20028;-77
2023/09/11 07:34:02;;;;;;;10.48;7.22;;;;;;;36.60;65.83;100268.38;5116198;28;20511;-79
2023/09/11 07:36:28;;;;;;;10.13;8.02;;;;;;;36.77;62.84;100270.59;5116676;28;20074;-78
2023/09/11 07:38:53;;;;;;;10.25;8.75;;;;;;;36.75;63.67;100272.72;5097811;28;20046;-79
2023/09/11 07:41:21;;;;;;;11.63;7.93;;;;;;;36.87;58.28;100273.22;5115384;28;20044;-80
2023/09/11 07:43:50;;;;;;;11.38;8.02;;;;;;;36.91;59.49;100269.66;5113479;28;20468;-76
2023/09/11 07:46:17;;;;;;;8.82;7.93;;;;;;;36.98;52.43;100265.47;5116074;28;20081;-77
2023/09/11 07:48:42;;;;;;;11.07;7.60;;;;;;;37.08;58.94;100269.59;5115426;28;20031;-76
2023/09/11 07:51:08;;;;;;;11.75;7.55;;;;;;;37.32;58.69;100272.81;5115842;28;20096;-77
2023/09/11 07:53:35;;;;;;;8.80;6.85;;;;;;;37.44;56.69;100263.56;5114441;28;20032;-78
2023/09/11 07:56:10;;;;;;;9.13;7.93;;;;;;;37.52;52.05;100264.63;5115500;28;20356;-77
2023/09/11 07:58:36;;;;;;;11.30;7.28;;;;;;;37.59;53.74;100263.41;5115318;28;20027;-78
2023/09/11 08:01:02;;;;;;;12.32;7.38;;;;;;;37.71;53.47;100266.09;5115392;28;20433;-77
2023/09/11 08:03:28;;;;;;;11.57;7.15;;;;;;;37.75;55.04;100248.34;5115669;28;20035;-77
2023/09/11 08:05:54;;;;;;;7.97;7.18;;;;;;;37.96;53.63;100256.59;5115705;28;20486;-75
2023/09/11 08:08:21;;;;;;;10.32;7.40;;;;;;;37.96;46.34;100256.59;5097048;28;20036;-77
2023/09/11 08:10:47;;;;;;;14.13;8.30;;;;;;;37.90;49.36;100258.59;5114815;28;20042;-78
2023/09/11 08:13:13;;;;;;;9.48;7.60;;;;;;;37.83;49.86;100259.81;5115818;27;20434;-76
2023/09/11 08:15:38;;;;;;;13.30;7.32;;;;;;;37.93;49.14;100254.22;5115304;27;20024;-75
2023/09/11 08:18:04;;;;;;;8.82;7.40;;;;;;;38.01;48.06;100258.28;5096913;28;20405;-78
2023/09/11 08:20:30;;;;;;;10.68;6.93;;;;;;;37.93;48.38;100252.00;5112806;28;20471;-78
2023/09/11 08:22:58;;;;;;;8.63;6.80;;;;;;;37.73;47.93;100257.97;5115122;28;20016;-76
2023/09/11 08:25:23;;;;;;;10.48;7.25;;;;;;;37.56;48.03;100246.91;5114847;28;20035;-76
2023/09/11 08:27:51;;;;;;;9.63;7.32;;;;;;;37.49;47.96;100254.09;5114718;28;20053;-76
2023/09/11 08:30:18;;;;;;;11.27;6.90;;;;;;;37.47;51.46;100251.00;5114909;28;20023;-78
2023/09/11 08:32:44;;;;;;;14.00;7.07;;;;;;;37.58;47.14;100252.16;5113654;28;20028;-77
2023/09/11 08:35:10;;;;;;;10.63;7.15;;;;;;;37.36;49.12;100254.31;5112448;28;20087;-76
2023/09/11 08:37:35;;;;;;;8.25;6.53;;;;;;;37.32;51.98;100254.13;5113450;28;20066;-75
2023/09/11 08:40:01;;;;;;;7.63;6.30;;;;;;;37.51;47.99;100254.16;5114669;28;20122;-83
2023/09/11 08:42:31;;;;;;;7.47;6.70;;;;;;;37.45;46.02;100250.94;5114070;28;20044;-82
2023/09/11 08:44:58;;;;;;;12.88;6.40;;;;;;;37.52;45.11;100252.69;5113132;28;20103;-84
2023/09/11 08:47:30;;;;;;;8.43;6.20;;;;;;;37.45;48.59;100250.94;5114293;28;20081;-81
2023/09/11 08:49:59;;;;;;;8.00;6.47;;;;;;;37.57;47.60;100250.66;5113020;28;20469;-79
2023/09/11 08:52:26;;;;;;;8.50;6.65;;;;;;;37.58;46.49;100255.91;5112859;28;20031;-79
2023/09/11 08:54:53;;;;;;;10.63;6.30;;;;;;;37.54;48.54;100257.97;5112475;28;20028;-80
2023/09/11 08:57:22;;;;;;;10.10;6.45;;;;;;;37.43;47.74;100247.88;5113400;28;20365;-80
2023/09/11 08:59:50;;;;;;;14.98;6.93;;;;;;;37.45;47.13;100244.22;5112995;28;20365;-79
2023/09/11 09:02:17;;;;;;;12.10;6.97;;;;;;;37.36;48.73;100242.38;5113089;28;20094;-78
2023/09/11 09:04:44;;;;;;;9.98;6.38;;;;;;;37.15;49.34;100246.78;5113915;28;20023;-80
2023/09/11 09:07:10;;;;;;;9.85;6.43;;;;;;;37.12;48.93;100254.88;5113180;28;20548;-80
2023/09/11 09:09:35;;;;;;;10.60;6.97;;;;;;;37.20;49.92;100245.47;5114231;28;20111;-78
2023/09/11 09:12:02;;;;;;;7.50;6.75;;;;;;;37.26;50.48;100248.69;5112251;28;20040;-80
2023/09/11 09:14:28;;;;;;;9.43;6.95;;;;;;;37.13;49.25;100246.69;5112737;28;20247;-80
2023/09/11 09:16:54;;;;;;;8.65;6.68;;;;;;;36.29;52.58;100251.41;5112624;28;20101;-79
2023/09/11 09:19:20;;;;;;;9.20;6.75;;;;;;;35.87;55.36;100250.31;5113994;28;20031;-80
2023/09/11 09:22:15;;;;;;;10.63;6.72;;;;;;;35.47;58.21;100246.25;5112641;28;20032;-80
2023/09/11 09:24:51;;;;;;;10.15;6.60;;;;;;;35.39;59.14;100236.97;5112877;28;20105;-78
2023/09/11 09:27:17;;;;;;;8.60;7.20;;;;;;;35.55;58.33;100243.66;5113509;28;20028;-77
2023/09/11 09:29:42;;;;;;;12.05;7.25;;;;;;;35.73;55.85;100243.72;5112652;28;20080;-77
2023/09/11 09:32:09;;;;;;;15.25;6.72;;;;;;;35.72;57.27;100238.44;5112436;28;20039;-78
2023/09/11 09:34:36;;;;;;;8.05;6.70;;;;;;;35.39;57.51;100210.22;5113226;28;20109;-78
2023/09/11 09:37:02;;;;;;;7.05;6.38;;;;;;;35.53;59.05;100227.91;5113016;28;20385;-79
2023/09/11 09:39:28;;;;;;;8.82;6.65;;;;;;;35.34;60.09;100234.47;5112447;28;20123;-78
2023/09/11 09:41:58;;;;;;;8.60;6.57;;;;;;;35.03;58.08;100202.53;5095367;28;20069;-80
2023/09/11 09:44:33;;;;;;;8.02;6.85;;;;;;;35.02;61.19;100230.69;5113386;28;20050;-78
2023/09/11 09:47:09;;;;;;;7.35;6.50;;;;;;;34.75;69.23;100232.44;5113693;28;20072;-78
2023/09/11 09:49:51;;;;;;;9.00;7.22;;;;;;;34.66;64.40;100217.84;5112233;28;20049;-77
2023/09/11 09:52:20;;;;;;;9.90;6.50;;;;;;;34.69;63.29;100223.22;5113517;28;20031;-80
2023/09/11 09:54:54;;;;;;;9.30;6.45;;;;;;;34.62;60.14;100205.75;5096299;28;20105;-79
2023/09/11 09:57:21;;;;;;;10.25;6.72;;;;;;;34.63;61.84;100216.22;5112704;28;20388;-80
2023/09/11 09:59:50;;;;;;;9.40;6.50;;;;;;;34.54;58.41;100214.25;5113914;28;20103;-80
2023/09/11 10:02:25;;;;;;;11.35;6.65;;;;;;;34.43;59.73;100207.03;5113524;28;20051;-80
2023/09/11 10:04:53;;;;;;;7.68;5.85;;;;;;;34.32;59.25;100207.97;5113491;28;20061;-81
2023/09/11 10:07:36;;;;;;;8.18;6.20;;;;;;;34.14;62.02;100201.88;5113054;28;20476;-81
2023/09/11 10:10:23;;;;;;;7.20;6.50;;;;;;;33.94;63.20;100201.59;5117788;28;20043;-76
2023/09/11 10:13:08;;;;;;;7.15;5.82;;;;;;;33.81;59.80;100196.47;5117764;28;20103;-78
2023/09/11 10:15:38;;;;;;;8.63;6.38;;;;;;;33.70;63.33;100206.25;5116975;28;20040;-79
2023/09/11 10:18:05;;;;;;;6.85;5.82;;;;;;;33.52;68.72;100199.34;5117135;28;20119;-78
2023/09/11 10:20:31;;;;;;;14.18;5.90;;;;;;;33.41;69.22;100194.31;5117340;28;20034;-78
2023/09/11 10:22:58;;;;;;;6.72;6.13;;;;;;;33.41;71.03;100203.19;5116904;28;20024;-77
2023/09/11 10:25:24;;;;;;;8.38;5.93;;;;;;;33.11;68.39;100193.41;5117068;28;20529;-78
2023/09/11 10:27:56;;;;;;;11.68;6.40;;;;;;;32.60;71.99;100186.78;5115885;28;20024;-77
2023/09/11 10:30:32;;;;;;;6.68;5.95;;;;;;;32.55;71.00;100182.06;5115476;28;20307;-78
2023/09/11 10:33:00;;;;;;;8.25;5.85;;;;;;;32.56;71.52;100177.69;5117174;28;20024;-80
2023/09/11 10:35:29;;;;;;;9.88;6.45;;;;;;;32.63;71.00;100171.47;5116106;28;20352;-81
2023/09/11 10:37:56;;;;;;;7.13;5.88;;;;;;;32.66;72.19;100166.44;5117139;28;20053;-81
2023/09/11 10:40:25;;;;;;;8.50;5.55;;;;;;;32.73;67.23;100174.28;5117329;28;20028;-80
2023/09/11 10:42:51;;;;;;;5.65;5.15;;;;;;;32.71;64.34;100170.41;5116980;28;20434;-81
2023/09/11 10:45:32;;;;;;;8.68;5.75;;;;;;;32.70;67.02;100163.72;5117079;28;20525;-80
2023/09/11 10:47:57;;;;;;;7.43;5.70;;;;;;;32.72;68.74;100166.03;5116681;27;20425;-76
2023/09/11 10:50:24;;;;;;;6.93;5.28;;;;;;;32.57;73.05;100164.44;5116430;28;20520;-77
2023/09/11 10:52:54;;;;;;;6.70;5.38;;;;;;;31.80;77.03;100159.91;5116262;28;20385;-76
2023/09/11 10:55:22;;;;;;;8.55;6.00;;;;;;;31.64;76.34;100158.94;5116215;28;20031;-78
2023/09/11 10:57:50;;;;;;;4.97;4.47;;;;;;;31.62;61.74;100155.84;5116273;28;20074;-77
2023/09/11 11:00:17;;;;;;;11.10;5.15;;;;;;;31.60;62.57;100158.72;5116338;28;20030;-76
2023/09/11 11:02:43;;;;;;;6.07;5.32;;;;;;;31.61;64.44;100157.25;5116186;28;20030;-77
2023/09/11 11:05:14;;;;;;;7.95;5.70;;;;;;;31.57;70.13;100151.13;5114933;28;20040;-76
2023/09/11 11:07:41;;;;;;;5.97;5.22;;;;;;;31.38;67.20;100152.19;5115201;28;20028;-77
2023/09/11 11:10:12;;;;;;;7.05;5.30;;;;;;;31.26;62.21;100160.28;5097670;28;20049;-78
2023/09/11 11:12:42;;;;;;;;;;;;;;;31.23;65.84;100155.69;5116520;28;20039;-79
2023/09/11 11:15:25;;;;;;;5.90;5.40;;;;;;;31.26;64.72;100151.44;5114890;28;19911;-78